Time;durP1;ratioP1;P1;durP2;ratioP2;P2;SDS_P1;SDS_P2;PMS_P1;PMS_P2;Temp;Humidity;BMP_temperature;BMP_pressure;BME280_temperature;BME280_humidity;BME280_pressure;Samples;Min_cycle;Max_cycle;Signal;HPM_P1;HPM_P2
2021/01/02 00:01:03;;;;;;;2.93;1.43;;;0.70;86.30;;;;;;5040287;28;20177;-90
2021/01/02 00:03:48;;;;;;;0.67;0.57;;;0.70;86.30;;;;;;5021069;28;20045;-87
2021/01/02 00:06:27;;;;;;;2.90;1.77;;;0.70;86.40;;;;;;5039667;28;20051;-89
2021/01/02 00:09:02;;;;;;;8.37;2.20;;;0.70;86.50;;;;;;5062101;28;20037;-88
2021/01/02 00:11:42;;;;;;;4.63;1.23;;;0.70;86.50;;;;;;5028693;28;20040;-88
2021/01/02 00:14:27;;;;;;;4.00;1.70;;;0.60;86.50;;;;;;5052413;28;20347;-89
2021/01/02 00:17:14;;;;;;;1.23;0.67;;;0.60;86.50;;;;;;5057308;28;20029;-89
2021/01/02 00:20:05;;;;;;;4.90;2.63;;;0.60;86.50;;;;;;5036074;28;20048;-89
2021/01/02 00:22:45;;;;;;;1.27;1.17;;;0.60;86.50;;;;;;5061660;28;20044;-88
2021/01/02 00:25:15;;;;;;;2.77;1.33;;;0.50;86.50;;;;;;5038846;28;20119;-88
2021/01/02 00:28:04;;;;;;;4.67;1.80;;;0.60;86.50;;;;;;5033186;28;20037;-87
2021/01/02 00:30:33;;;;;;;4.77;1.63;;;0.50;86.40;;;;;;5047057;28;20029;-89
2021/01/02 00:33:05;;;;;;;0.97;0.60;;;0.50;86.40;;;;;;5059585;28;20033;-88
2021/01/02 00:35:31;;;;;;;1.23;0.90;;;0.50;86.50;;;;;;5026103;28;20131;-88
2021/01/02 00:38:03;;;;;;;4.37;1.23;;;0.40;86.50;;;;;;5058794;28;20036;-89
2021/01/02 00:40:31;;;;;;;0.60;0.53;;;0.50;86.60;;;;;;5025270;28;20049;-88
2021/01/02 00:42:57;;;;;;;2.20;1.47;;;0.50;86.60;;;;;;5008595;28;20033;-88
2021/01/02 00:45:24;;;;;;;8.70;2.13;;;0.50;86.60;;;;;;5028774;28;20033;-87
2021/01/02 00:47:51;;;;;;;8.73;1.80;;;0.40;86.50;;;;;;5037150;28;20041;-86
2021/01/02 00:50:19;;;;;;;3.40;1.30;;;0.50;86.60;;;;;;5039694;28;20036;-89
2021/01/02 00:52:52;;;;;;;2.13;0.80;;;0.50;86.40;;;;;;5007668;28;20041;-88
2021/01/02 00:55:24;;;;;;;2.03;1.30;;;0.50;86.40;;;;;;5040881;28;20033;-88
2021/01/02 00:58:13;;;;;;;1.77;1.00;;;0.50;86.40;;;;;;5039572;28;20052;-88
2021/01/02 01:00:40;;;;;;;5.00;1.43;;;0.40;86.40;;;;;;5022350;28;20040;-89
2021/01/02 01:03:16;;;;;;;4.03;1.30;;;0.40;86.40;;;;;;5052523;28;20033;-89
2021/01/02 01:05:46;;;;;;;1.13;0.80;;;0.40;86.50;;;;;;5040768;28;20040;-88
2021/01/02 01:08:16;;;;;;;1.13;0.57;;;0.30;86.70;;;;;;5040579;28;20041;-88
2021/01/02 01:10:42;;;;;;;13.33;2.23;;;0.30;86.70;;;;;;5025208;28;20035;-90
2021/01/02 01:13:10;;;;;;;0.67;0.50;;;0.30;86.80;;;;;;5012734;28;20037;-88
2021/01/02 01:15:36;;;;;;;4.63;1.27;;;0.30;86.90;;;;;;5024803;28;20036;-89
2021/01/02 01:18:05;;;;;;;1.13;0.50;;;0.30;86.80;;;;;;5024595;28;20028;-87
2021/01/02 01:20:31;;;;;;;4.00;1.03;;;0.30;86.70;;;;;;5040644;28;20037;-88
2021/01/02 01:23:18;;;;;;;1.70;1.10;;;0.30;86.80;;;;;;5024848;28;20032;-88
2021/01/02 01:26:17;;;;;;;1.33;0.83;;;0.20;86.80;;;;;;5041108;28;20036;-87
2021/01/02 01:28:45;;;;;;;0.20;0.17;;;0.20;86.80;;;;;;5014215;28;20051;-87
2021/01/02 01:31:15;;;;;;;1.60;0.90;;;0.10;86.80;;;;;;5052779;28;20040;-87
2021/01/02 01:33:42;;;;;;;1.87;1.20;;;0.20;86.80;;;;;;5008476;28;20040;-88
2021/01/02 01:36:09;;;;;;;3.13;1.27;;;0.20;86.80;;;;;;5041063;28;20035;-89
2021/01/02 01:38:35;;;;;;;2.17;1.40;;;0.10;86.80;;;;;;5033591;28;20041;-90
2021/01/02 01:41:12;;;;;;;2.73;0.83;;;0.10;86.90;;;;;;5012985;28;20567;-88
2021/01/02 01:44:09;;;;;;;1.60;1.07;;;0.00;86.90;;;;;;5057394;28;20308;-87
2021/01/02 01:46:50;;;;;;;2.60;1.50;;;0.00;87.00;;;;;;5038003;28;20048;-88
2021/01/02 01:49:20;;;;;;;1.73;1.03;;;0.00;87.00;;;;;;5038213;28;20050;-88
2021/01/02 01:52:02;;;;;;;1.53;0.93;;;0.10;86.90;;;;;;5058226;28;20029;-89
2021/01/02 01:54:58;;;;;;;6.93;1.03;;;0.10;86.80;;;;;;5056614;28;20172;-88
2021/01/02 01:57:26;;;;;;;1.97;1.13;;;0.10;86.80;;;;;;5053649;28;20046;-88
2021/01/02 02:00:08;;;;;;;8.13;1.00;;;0.10;86.80;;;;;;5028696;28;20041;-87
2021/01/02 02:02:47;;;;;;;1.57;0.97;;;0.10;86.80;;;;;;5022992;28;20047;-88
2021/01/02 02:05:16;;;;;;;3.20;1.23;;;0.00;86.70;;;;;;5055074;28;20032;-88
2021/01/02 02:08:04;;;;;;;0.60;0.60;;;0.00;86.80;;;;;;5004315;28;20040;-88
2021/01/02 02:10:35;;;;;;;3.00;1.00;;;0.00;86.90;;;;;;5017865;28;20042;-87
2021/01/02 02:13:11;;;;;;;3.72;1.45;;;0.00;86.90;;;;;;5030314;28;20316;-89
2021/01/02 02:15:58;;;;;;;2.40;1.67;;;-0.10;87.00;;;;;;5008515;28;20028;-88
2021/01/02 02:18:28;;;;;;;2.07;1.10;;;-0.10;87.00;;;;;;5051929;28;20035;-87
2021/01/02 02:20:56;;;;;;;1.10;0.43;;;-0.20;86.90;;;;;;5039469;28;20055;-88
2021/01/02 02:23:26;;;;;;;7.03;1.80;;;-0.20;87.00;;;;;;5056865;28;20263;-88
2021/01/02 02:26:02;;;;;;;2.90;1.13;;;-0.20;87.00;;;;;;5042752;28;20020;-86
2021/01/02 02:28:58;;;;;;;4.30;0.53;;;-0.20;87.00;;;;;;5073603;28;20032;-87
2021/01/02 02:31:24;;;;;;;1.50;0.77;;;-0.20;87.00;;;;;;5017569;28;20032;-88
2021/01/02 02:34:00;;;;;;;4.60;1.87;;;-0.20;87.00;;;;;;5003870;28;20040;-88
2021/01/02 02:36:28;;;;;;;2.83;1.23;;;-0.20;86.90;;;;;;5001054;28;20045;-88
2021/01/02 02:38:55;;;;;;;2.47;0.93;;;-0.20;86.90;;;;;;4998744;28;20029;-87
2021/01/02 02:41:32;;;;;;;6.50;0.87;;;-0.30;86.90;;;;;;5032634;28;20040;-88
2021/01/02 02:44:03;;;;;;;4.20;0.80;;;-0.30;87.00;;;;;;5002882;28;20072;-88
2021/01/02 02:46:32;;;;;;;0.70;0.50;;;-0.30;87.10;;;;;;5037554;28;20059;-87
2021/01/02 02:49:01;;;;;;;5.63;1.77;;;-0.30;87.20;;;;;;5019388;28;20029;-88
2021/01/02 02:51:28;;;;;;;1.93;1.80;;;-0.40;87.20;;;;;;5025408;28;20040;-87
2021/01/02 02:53:55;;;;;;;0.93;0.90;;;-0.40;87.20;;;;;;5020064;28;20060;-87
2021/01/02 02:56:21;;;;;;;0.83;0.80;;;-0.40;87.10;;;;;;5018215;28;20020;-88
2021/01/02 02:58:49;;;;;;;0.50;0.30;;;-0.40;87.20;;;;;;5054115;28;20036;-87
2021/01/02 03:01:15;;;;;;;2.53;1.30;;;-0.40;87.30;;;;;;5034245;28;20032;-89
2021/01/02 03:03:42;;;;;;;1.97;1.27;;;-0.40;87.20;;;;;;5017818;28;20448;-87
2021/01/02 03:06:09;;;;;;;1.83;1.23;;;-0.40;87.20;;;;;;5016709;28;20033;-87
2021/01/02 03:08:35;;;;;;;3.63;1.87;;;-0.40;87.10;;;;;;5041421;28;20044;-86
2021/01/02 03:11:02;;;;;;;3.73;0.97;;;-0.30;87.10;;;;;;5047083;28;20036;-87
2021/01/02 03:13:35;;;;;;;1.90;1.23;;;-0.40;87.10;;;;;;5035702;28;20032;-88
2021/01/02 03:16:02;;;;;;;5.13;0.63;;;-0.40;87.00;;;;;;5034952;28;20045;-87
2021/01/02 03:18:28;;;;;;;0.90;0.40;;;-0.40;87.00;;;;;;5048190;28;20040;-88
2021/01/02 03:20:54;;;;;;;0.83;0.50;;;-0.40;87.00;;;;;;5053791;28;20416;-87
2021/01/02 03:23:21;;;;;;;1.50;0.83;;;-0.40;87.00;;;;;;5027007;28;20423;-88
2021/01/02 03:25:47;;;;;;;1.80;1.40;;;-0.40;87.00;;;;;;5010483;28;20761;-87
2021/01/02 03:28:13;;;;;;;1.03;0.87;;;-0.40;87.00;;;;;;5002171;28;20428;-87
2021/01/02 03:30:40;;;;;;;0.37;0.27;;;-0.40;87.00;;;;;;5033294;28;20040;-87
2021/01/02 03:33:06;;;;;;;2.07;0.90;;;-0.40;87.10;;;;;;5030396;28;20340;-88
2021/01/02 03:35:33;;;;;;;4.77;1.23;;;-0.50;86.90;;;;;;5017840;28;20044;-90
2021/01/02 03:37:59;;;;;;;3.33;0.73;;;-0.50;86.90;;;;;;5035294;28;20462;-88
2021/01/02 03:40:26;;;;;;;6.33;1.73;;;-0.50;86.90;;;;;;5051611;28;20343;-89
2021/01/02 03:42:52;;;;;;;4.87;0.70;;;-0.50;86.90;;;;;;5055273;28;20033;-89
2021/01/02 03:45:18;;;;;;;1.90;0.90;;;-0.40;86.90;;;;;;5049543;28;20059;-87
2021/01/02 03:47:45;;;;;;;0.50;0.37;;;-0.50;86.90;;;;;;4999619;28;20026;-87
2021/01/02 03:50:12;;;;;;;1.33;1.13;;;-0.50;86.90;;;;;;5032449;28;20040;-87
2021/01/02 03:52:39;;;;;;;1.87;1.20;;;-0.50;86.90;;;;;;5048563;28;20052;-87
2021/01/02 03:55:06;;;;;;;0.87;0.27;;;-0.50;86.90;;;;;;5023938;28;20039;-87
2021/01/02 03:57:32;;;;;;;2.67;1.43;;;-0.50;86.80;;;;;;5037923;28;20041;-87
2021/01/02 03:59:59;;;;;;;2.33;1.03;;;-0.50;86.70;;;;;;5033204;28;20044;-88
2021/01/02 04:02:26;;;;;;;0.13;0.13;;;-0.50;86.80;;;;;;5038148;28;20037;-86
2021/01/02 04:04:52;;;;;;;0.83;0.53;;;-0.60;86.80;;;;;;5052861;28;20461;-86
2021/01/02 04:07:18;;;;;;;1.87;1.03;;;-0.60;86.90;;;;;;5022865;28;20048;-87
2021/01/02 04:09:45;;;;;;;3.60;0.43;;;-0.60;87.10;;;;;;5002637;28;20041;-88
2021/01/02 04:12:11;;;;;;;0.63;0.63;;;-0.60;87.00;;;;;;5006511;28;20055;-87
2021/01/02 04:14:38;;;;;;;1.27;0.80;;;-0.60;87.10;;;;;;5045801;28;20216;-87
2021/01/02 04:17:04;;;;;;;1.07;0.87;;;-0.60;87.00;;;;;;5004412;28;20036;-88
2021/01/02 04:19:32;;;;;;;0.43;0.37;;;-0.60;87.20;;;;;;5045856;28;20415;-87
2021/01/02 04:21:59;;;;;;;1.17;0.97;;;-0.60;87.00;;;;;;5055106;28;20426;-87
2021/01/02 04:24:28;;;;;;;1.20;0.67;;;-0.60;87.00;;;;;;5064889;28;20028;-87
2021/01/02 04:26:59;;;;;;;1.13;0.63;;;-0.60;87.10;;;;;;5028681;28;20343;-91
2021/01/02 04:29:25;;;;;;;1.00;0.80;;;-0.60;87.10;;;;;;5039756;28;20048;-87
2021/01/02 04:31:54;;;;;;;2.83;1.70;;;-0.60;87.00;;;;;;5019410;28;20033;-88
2021/01/02 04:34:20;;;;;;;1.60;0.93;;;-0.70;86.90;;;;;;5044328;28;20020;-91
2021/01/02 04:36:48;;;;;;;3.43;2.07;;;-0.70;87.10;;;;;;5049833;28;20410;-88
2021/01/02 04:39:14;;;;;;;0.67;0.60;;;-0.80;87.20;;;;;;5022614;28;20049;-87
2021/01/02 04:41:43;;;;;;;2.73;1.27;;;-0.80;87.30;;;;;;5020890;28;20184;-89
2021/01/02 04:44:10;;;;;;;1.23;0.80;;;-0.80;87.40;;;;;;5024020;28;20300;-89
2021/01/02 04:46:37;;;;;;;1.03;0.77;;;-0.80;87.30;;;;;;5023036;28;20029;-88
2021/01/02 04:49:07;;;;;;;1.93;1.53;;;-0.80;87.30;;;;;;5042009;28;20041;-89
2021/01/02 04:51:33;;;;;;;1.60;1.10;;;-0.80;87.30;;;;;;5057881;28;20029;-87
2021/01/02 04:54:00;;;;;;;1.77;0.80;;;-0.90;87.20;;;;;;5038571;28;20033;-86
2021/01/02 04:56:28;;;;;;;0.90;0.20;;;-0.80;87.10;;;;;;5047747;28;20040;-87
2021/01/02 04:58:54;;;;;;;1.13;0.97;;;-0.90;87.10;;;;;;5056538;28;20040;-87
2021/01/02 05:01:20;;;;;;;4.03;1.10;;;-0.90;87.00;;;;;;5057117;28;20033;-86
2021/01/02 05:03:47;;;;;;;2.27;0.53;;;-0.90;87.00;;;;;;5027249;28;20052;-88
2021/01/02 05:06:22;;;;;;;0.30;0.10;;;-0.80;87.10;;;;;;5024921;28;20025;-89
2021/01/02 05:08:52;;;;;;;1.40;0.63;;;-0.80;87.00;;;;;;5023136;28;20036;-87
2021/01/02 05:11:19;;;;;;;10.63;1.63;;;-0.80;86.90;;;;;;5046008;28;20327;-88
2021/01/02 05:13:46;;;;;;;1.00;0.53;;;-0.80;86.90;;;;;;5041063;28;20336;-87
2021/01/02 05:16:21;;;;;;;3.70;0.80;;;-0.80;86.90;;;;;;5036898;28;20033;-87
2021/01/02 05:19:04;;;;;;;2.13;1.17;;;-0.80;86.90;;;;;;5041401;28;20041;-87
2021/01/02 05:21:31;;;;;;;1.30;0.97;;;-0.80;86.90;;;;;;5045202;28;20025;-88
2021/01/02 05:24:07;;;;;;;2.30;0.63;;;-0.80;86.80;;;;;;5021087;28;20040;-86
2021/01/02 05:26:34;;;;;;;0.93;0.67;;;-0.80;86.70;;;;;;5050003;28;20020;-84
2021/01/02 05:29:15;;;;;;;0.90;0.50;;;-0.80;86.70;;;;;;5031393;28;20037;-88
2021/01/02 05:31:42;;;;;;;4.33;0.87;;;-0.80;86.80;;;;;;5019700;28;20041;-85
2021/01/02 05:34:10;;;;;;;1.30;0.53;;;-0.80;86.80;;;;;;5046334;28;20029;-86
2021/01/02 05:36:37;;;;;;;0.40;0.27;;;-0.80;86.70;;;;;;5037242;28;20033;-85
2021/01/02 05:39:04;;;;;;;3.90;0.97;;;-0.80;86.70;;;;;;5055532;28;20048;-85
2021/01/02 05:41:55;;;;;;;3.67;0.97;;;-0.90;86.80;;;;;;5055658;28;20436;-85
2021/01/02 05:44:22;;;;;;;4.33;1.23;;;-0.90;86.80;;;;;;5026816;28;20545;-86
2021/01/02 05:46:53;;;;;;;3.23;1.03;;;-0.90;86.90;;;;;;5045112;28;20025;-85
2021/01/02 05:49:39;;;;;;;0.63;0.63;;;-0.90;86.90;;;;;;5036647;28;20044;-85
2021/01/02 05:52:10;;;;;;;8.23;1.47;;;-0.90;86.80;;;;;;5042104;28;20415;-84
2021/01/02 05:54:58;;;;;;;0.73;0.55;;;-0.90;86.80;;;;;;5051462;28;20439;-86
2021/01/02 05:57:29;;;;;;;3.03;0.67;;;-0.90;86.70;;;;;;5031494;28;20040;-89
2021/01/02 05:59:56;;;;;;;1.65;0.88;;;-0.90;86.60;;;;;;5056988;28;20036;-85
2021/01/02 06:02:30;;;;;;;1.20;0.60;;;-0.90;86.70;;;;;;5019772;28;20039;-86
2021/01/02 06:05:10;;;;;;;2.23;0.90;;;-0.90;86.80;;;;;;5022758;28;20017;-85
2021/01/02 06:07:37;;;;;;;0.70;0.60;;;-0.90;86.80;;;;;;5044281;28;20313;-84
2021/01/02 06:10:25;;;;;;;3.57;0.90;;;-0.90;86.70;;;;;;5027635;28;20041;-90
2021/01/02 06:12:51;;;;;;;0.10;0.10;;;-0.90;86.70;;;;;;5038083;28;20049;-86
2021/01/02 06:15:18;;;;;;;0.40;0.30;;;-0.90;86.80;;;;;;5052578;28;20044;-89
2021/01/02 06:17:48;;;;;;;1.07;0.97;;;-0.90;86.70;;;;;;5009617;28;20056;-86
2021/01/02 06:20:16;;;;;;;0.63;0.37;;;-0.90;86.60;;;;;;5022092;28;20045;-86
2021/01/02 06:22:42;;;;;;;1.40;1.03;;;-0.90;86.60;;;;;;5029719;28;20291;-87
2021/01/02 06:25:13;;;;;;;0.90;0.80;;;-0.80;86.70;;;;;;5020570;28;20431;-86
2021/01/02 06:27:44;;;;;;;0.55;0.32;;;-0.40;85.90;;;;;;5037358;28;20048;-87
2021/01/02 06:30:14;;;;;;;;;;;-0.40;85.10;;;;;;5022658;28;20432;-86
2021/01/02 06:32:45;;;;;;;0.37;0.23;;;-0.40;85.10;;;;;;5037775;28;19912;-86
2021/01/02 06:35:12;;;;;;;1.03;0.40;;;-0.50;85.20;;;;;;5028104;28;20451;-86
2021/01/02 06:37:47;;;;;;;2.93;1.13;;;-0.60;85.30;;;;;;5035800;28;20052;-85
2021/01/02 06:40:33;;;;;;;4.13;1.23;;;-0.60;85.70;;;;;;5054142;28;20032;-85
2021/01/02 06:43:01;;;;;;;1.10;0.57;;;-0.70;85.70;;;;;;5036655;28;20041;-86
2021/01/02 06:45:36;;;;;;;1.23;0.83;;;-0.70;85.90;;;;;;5067420;28;20056;-86
2021/01/02 06:48:23;;;;;;;0.97;0.87;;;-0.70;85.90;;;;;;5052738;28;20037;-85
2021/01/02 06:50:56;;;;;;;1.37;0.90;;;-0.70;86.10;;;;;;5041016;28;20036;-89
2021/01/02 06:53:30;;;;;;;2.73;1.50;;;-0.80;86.00;;;;;;5055509;28;20032;-86
2021/01/02 06:56:09;;;;;;;1.93;0.77;;;-0.70;86.10;;;;;;5056529;28;20446;-86
2021/01/02 06:58:44;;;;;;;2.77;0.53;;;-0.70;86.00;;;;;;5051215;28;20048;-85
2021/01/02 07:01:17;;;;;;;1.50;0.67;;;-0.70;85.80;;;;;;5054591;28;20040;-85
2021/01/02 07:03:47;;;;;;;2.33;0.90;;;-0.70;85.80;;;;;;5055392;28;20454;-86
2021/01/02 07:06:34;;;;;;;0.45;0.20;;;-0.70;85.80;;;;;;5027869;28;20052;-86
2021/01/02 07:09:09;;;;;;;1.33;0.50;;;-0.70;85.80;;;;;;5054780;28;20037;-86
2021/01/02 07:11:38;;;;;;;0.73;0.30;;;-0.70;85.80;;;;;;5056480;28;20040;-89
2021/01/02 07:14:11;;;;;;;1.60;0.43;;;-0.80;85.70;;;;;;5031301;28;20052;-86
2021/01/02 07:16:50;;;;;;;0.93;0.60;;;-0.80;85.80;;;;;;5051757;28;20060;-86
2021/01/02 07:19:26;;;;;;;1.30;0.57;;;-0.80;85.80;;;;;;5020244;28;20048;-86
2021/01/02 07:22:15;;;;;;;1.40;0.77;;;-0.70;85.70;;;;;;5054182;28;20033;-85
2021/01/02 07:24:48;;;;;;;1.10;0.90;;;-0.60;85.70;;;;;;5035535;28;20044;-87
2021/01/02 07:27:21;;;;;;;0.43;0.37;;;-0.50;85.30;;;;;;5034500;28;20352;-86
2021/01/02 07:29:49;;;;;;;1.23;0.80;;;-0.60;85.20;;;;;;5036487;28;20028;-89
2021/01/02 07:32:21;;;;;;;6.13;1.03;;;-0.60;85.40;;;;;;5001608;28;20052;-87
2021/01/02 07:34:49;;;;;;;1.30;1.13;;;-0.40;85.20;;;;;;5014350;28;20033;-87
2021/01/02 07:37:17;;;;;;;1.13;0.73;;;-0.40;85.00;;;;;;5043020;28;20439;-85
2021/01/02 07:40:16;;;;;;;0.23;0.20;;;-0.50;85.10;;;;;;5036430;28;20033;-87
2021/01/02 07:42:49;;;;;;;1.70;1.27;;;-0.60;85.20;;;;;;5004958;28;20045;-88
2021/01/02 07:45:20;;;;;;;2.27;0.97;;;-0.60;85.50;;;;;;5020678;28;20040;-86
2021/01/02 07:47:46;;;;;;;1.08;0.75;;;-0.70;85.50;;;;;;5039184;28;20040;-88
2021/01/02 07:50:14;;;;;;;10.57;0.80;;;-0.70;85.70;;;;;;5062100;28;20040;-88
2021/01/02 07:52:51;;;;;;;0.80;0.63;;;-0.70;85.70;;;;;;5018803;28;20041;-87
2021/01/02 07:55:21;;;;;;;4.90;1.60;;;-0.70;85.70;;;;;;5036324;28;20032;-85
2021/01/02 07:57:47;;;;;;;2.67;1.17;;;-0.80;85.70;;;;;;5036235;28;20036;-85
2021/01/02 08:00:14;;;;;;;6.13;2.87;;;-0.80;85.80;;;;;;5047399;28;20442;-87
2021/01/02 08:02:40;;;;;;;1.20;0.80;;;-0.80;85.80;;;;;;5030774;28;20040;-92
2021/01/02 08:05:21;;;;;;;0.07;0.07;;;-0.80;85.80;;;;;;5032286;28;20048;-91
2021/01/02 08:07:58;;;;;;;4.88;2.42;;;-0.50;85.90;;;;;;5024632;28;20040;-90
2021/01/02 08:10:25;;;;;;;2.93;1.77;;;-0.10;84.80;;;;;;5020431;28;20021;-91
2021/01/02 08:12:52;;;;;;;3.10;0.47;;;0.30;83.50;;;;;;5009960;28;20036;-92
2021/01/02 08:15:58;;;;;;;2.23;0.97;;;0.60;82.50;;;;;;5035490;28;20040;-92
2021/01/02 08:18:24;;;;;;;3.87;1.00;;;0.70;81.80;;;;;;5014368;28;20036;-93
2021/01/02 08:21:00;;;;;;;11.33;3.50;;;0.50;82.20;;;;;;5029350;28;20040;-91
2021/01/02 08:23:26;;;;;;;1.40;1.27;;;0.30;82.90;;;;;;5038887;28;20037;-85
2021/01/02 08:25:53;;;;;;;2.67;1.93;;;0.10;83.60;;;;;;5057664;28;20040;-88
2021/01/02 08:28:20;;;;;;;2.80;1.13;;;0.00;84.20;;;;;;5033401;28;20037;-84
2021/01/02 08:30:48;;;;;;;1.03;0.93;;;-0.10;84.50;;;;;;5050198;28;20029;-91
2021/01/02 08:33:18;;;;;;;7.43;1.27;;;-0.20;84.70;;;;;;5019589;28;20033;-88
2021/01/02 08:35:49;;;;;;;5.80;3.83;;;-0.20;84.90;;;;;;5039552;28;20080;-91
2021/01/02 08:38:15;;;;;;;8.67;1.93;;;-0.20;85.00;;;;;;5025716;28;20352;-88
2021/01/02 08:40:50;;;;;;;1.23;0.67;;;0.20;84.60;;;;;;5061956;28;20319;-91
2021/01/02 08:43:26;;;;;;;1.00;0.90;;;0.60;83.50;;;;;;5060190;28;20028;-91
2021/01/02 08:46:03;;;;;;;2.67;0.43;;;0.80;82.60;;;;;;5057987;28;20334;-88
2021/01/02 08:48:30;;;;;;;0.53;0.53;;;1.20;82.00;;;;;;5036427;28;20033;-89
2021/01/02 08:50:56;;;;;;;0.63;0.40;;;1.40;81.20;;;;;;5007429;28;20041;-89
2021/01/02 08:53:31;;;;;;;2.33;0.77;;;1.80;80.50;;;;;;5024775;28;20324;-91
2021/01/02 08:55:59;;;;;;;2.73;1.20;;;2.10;79.80;;;;;;5043090;28;20431;-88
2021/01/02 08:58:34;;;;;;;0.87;0.67;;;2.30;79.40;;;;;;5049701;28;20049;-90
2021/01/02 09:01:01;;;;;;;4.27;2.40;;;2.30;79.20;;;;;;5025269;28;20041;-89
2021/01/02 09:03:27;;;;;;;2.67;1.27;;;2.50;79.30;;;;;;5015255;28;20032;-86
2021/01/02 09:05:54;;;;;;;0.53;0.33;;;2.50;79.00;;;;;;5042916;28;20025;-85
2021/01/02 09:08:20;;;;;;;1.73;1.07;;;2.20;79.50;;;;;;5049879;28;20029;-85
2021/01/02 09:10:48;;;;;;;0.50;0.40;;;1.80;80.50;;;;;;5044601;28;20025;-86
2021/01/02 09:13:22;;;;;;;1.23;0.70;;;1.50;81.50;;;;;;5035716;28;20032;-88
2021/01/02 09:16:05;;;;;;;3.83;1.03;;;1.30;82.50;;;;;;5049605;28;20443;-85
2021/01/02 09:18:35;;;;;;;2.10;1.07;;;1.10;83.10;;;;;;5058242;28;20052;-85
2021/01/02 09:21:10;;;;;;;1.57;0.93;;;1.00;83.40;;;;;;5073906;28;20047;-88
2021/01/02 09:23:40;;;;;;;0.53;0.40;;;0.90;83.60;;;;;;5072968;28;20063;-85
2021/01/02 09:26:29;;;;;;;0.60;0.37;;;0.90;83.70;;;;;;5025025;28;20037;-85
2021/01/02 09:28:57;;;;;;;1.00;0.57;;;0.90;83.70;;;;;;5020866;28;20447;-85
2021/01/02 09:31:24;;;;;;;1.10;0.80;;;0.90;83.70;;;;;;5041987;28;20044;-90
2021/01/02 09:33:50;;;;;;;0.40;0.20;;;0.90;83.50;;;;;;5059016;28;20040;-85
2021/01/02 09:36:17;;;;;;;5.37;1.90;;;0.90;83.50;;;;;;5039132;28;20029;-87
2021/01/02 09:38:44;;;;;;;0.93;0.70;;;0.90;83.50;;;;;;5028690;28;20355;-87
2021/01/02 09:41:12;;;;;;;1.73;1.17;;;1.00;83.40;;;;;;5031048;28;20041;-85
2021/01/02 09:43:38;;;;;;;0.97;0.73;;;1.00;83.30;;;;;;5048866;28;20021;-85
2021/01/02 09:46:05;;;;;;;0.90;0.30;;;1.00;83.20;;;;;;5049349;28;20033;-85
2021/01/02 09:48:31;;;;;;;2.50;1.10;;;1.10;83.10;;;;;;5033941;28;20045;-86
2021/01/02 09:50:57;;;;;;;0.97;0.37;;;1.20;83.00;;;;;;5041044;28;20260;-85
2021/01/02 09:53:24;;;;;;;1.07;0.83;;;1.20;82.90;;;;;;5046936;28;20033;-89
2021/01/02 09:55:50;;;;;;;0.93;0.67;;;1.60;82.90;;;;;;5041279;28;20027;-88
2021/01/02 09:58:17;;;;;;;2.83;0.90;;;2.10;81.50;;;;;;5035571;28;20036;-90
2021/01/02 10:00:43;;;;;;;2.30;0.47;;;2.60;80.30;;;;;;5047205;28;20039;-89
2021/01/02 10:03:10;;;;;;;0.23;0.23;;;2.80;79.30;;;;;;5024073;28;20048;-88
2021/01/02 10:05:36;;;;;;;0.63;0.30;;;3.10;79.00;;;;;;5039378;28;20220;-89
2021/01/02 10:08:04;;;;;;;2.17;0.53;;;3.20;78.80;;;;;;5041842;28;20037;-89
2021/01/02 10:10:30;;;;;;;2.43;0.40;;;3.30;78.60;;;;;;5056165;28;20040;-90
2021/01/02 10:12:57;;;;;;;1.70;0.87;;;3.50;78.40;;;;;;5033330;28;20434;-89
2021/01/02 10:15:23;;;;;;;5.13;1.53;;;3.80;78.10;;;;;;5024809;28;20167;-91
2021/01/02 10:17:50;;;;;;;3.67;2.17;;;3.90;77.90;;;;;;5046240;28;20040;-90
2021/01/02 10:20:20;;;;;;;1.20;0.77;;;4.00;77.80;;;;;;5030346;28;20032;-88
2021/01/02 10:22:46;;;;;;;2.97;1.03;;;4.30;77.70;;;;;;5043809;28;20056;-89
2021/01/02 10:25:14;;;;;;;0.97;0.53;;;4.40;77.30;;;;;;5025691;28;20033;-93
2021/01/02 10:27:40;;;;;;;7.63;2.43;;;4.60;77.10;;;;;;5031637;28;20045;-90
2021/01/02 10:30:08;;;;;;;1.53;0.83;;;4.70;77.00;;;;;;5035607;28;20041;-90
2021/01/02 10:32:35;;;;;;;0.73;0.70;;;4.90;76.90;;;;;;5053873;28;20029;-90
2021/01/02 10:35:01;;;;;;;2.17;0.97;;;5.10;76.80;;;;;;5039957;28;20036;-90
2021/01/02 10:37:29;;;;;;;2.30;0.77;;;5.20;76.60;;;;;;5040809;28;20040;-90
2021/01/02 10:39:58;;;;;;;1.70;1.10;;;5.30;76.60;;;;;;5056381;28;20039;-90
2021/01/02 10:42:29;;;;;;;6.20;0.50;;;5.40;76.60;;;;;;5026561;28;20044;-90
2021/01/02 10:45:00;;;;;;;0.57;0.28;;;5.40;76.60;;;;;;5023952;28;20039;-90
2021/01/02 10:47:28;;;;;;;2.40;0.90;;;5.30;76.90;;;;;;5039294;28;20039;-90
2021/01/02 10:49:55;;;;;;;2.53;1.53;;;5.30;77.20;;;;;;5049270;28;20024;-89
2021/01/02 10:52:23;;;;;;;1.47;1.33;;;5.20;77.70;;;;;;5020104;28;20052;-90
2021/01/02 10:54:51;;;;;;;1.00;0.70;;;5.20;78.10;;;;;;5042015;28;20351;-86
2021/01/02 10:57:18;;;;;;;1.50;1.33;;;5.20;78.20;;;;;;5029049;28;20049;-87
2021/01/02 10:59:48;;;;;;;1.27;0.53;;;5.50;78.10;;;;;;5027080;28;20044;-88
2021/01/02 11:02:15;;;;;;;0.30;0.28;;;5.90;77.10;;;;;;5036173;28;20064;-89
2021/01/02 11:04:46;;;;;;;3.20;1.10;;;6.40;76.00;;;;;;5006059;28;20038;-90
2021/01/02 11:07:13;;;;;;;3.80;1.40;;;6.80;75.10;;;;;;5032926;28;20037;-86
2021/01/02 11:09:39;;;;;;;2.40;1.33;;;7.00;74.50;;;;;;5035657;28;20037;-88
2021/01/02 11:12:06;;;;;;;23.10;7.07;;;7.30;74.20;;;;;;5038222;28;20028;-88
2021/01/02 11:14:32;;;;;;;18.07;5.87;;;7.40;74.10;;;;;;5033543;28;20044;-87
2021/01/02 11:16:59;;;;;;;13.53;3.10;;;7.70;74.20;;;;;;5037355;28;20035;-88
2021/01/02 11:19:27;;;;;;;3.30;1.80;;;7.90;73.90;;;;;;5023224;28;20104;-91
2021/01/02 11:21:56;;;;;;;3.37;1.90;;;8.30;73.30;;;;;;5039793;28;20442;-91
2021/01/02 11:24:30;;;;;;;3.80;1.63;;;8.60;72.60;;;;;;5042532;28;20060;-92
2021/01/02 11:26:58;;;;;;;1.57;1.03;;;8.90;72.20;;;;;;5043085;28;20061;-85
2021/01/02 11:29:26;;;;;;;2.15;0.93;;;9.10;71.90;;;;;;5044278;28;20021;-84
2021/01/02 11:31:52;;;;;;;6.43;2.40;;;9.30;71.90;;;;;;5037426;28;20351;-84
2021/01/02 11:34:19;;;;;;;0.77;0.47;;;9.40;71.80;;;;;;5055114;28;20564;-84
2021/01/02 11:36:56;;;;;;;2.63;1.27;;;9.60;71.80;;;;;;5072774;28;20032;-90
2021/01/02 11:39:23;;;;;;;2.35;0.93;;;9.60;71.80;;;;;;5040155;28;20455;-87
2021/01/02 11:41:50;;;;;;;1.95;0.93;;;9.60;71.90;;;;;;5036011;28;20040;-87
2021/01/02 11:44:18;;;;;;;1.77;0.93;;;9.50;72.20;;;;;;5021171;28;20036;-92
2021/01/02 11:46:46;;;;;;;3.55;1.10;;;9.50;72.60;;;;;;5018800;28;20040;-87
2021/01/02 11:49:17;;;;;;;1.13;0.87;;;9.50;72.90;;;;;;5020314;28;20036;-92
2021/01/02 11:51:48;;;;;;;0.77;0.63;;;9.70;73.10;;;;;;5039040;28;20033;-87
2021/01/02 11:54:14;;;;;;;2.17;0.68;;;9.90;72.70;;;;;;5040574;28;20033;-93
2021/01/02 11:56:41;;;;;;;4.95;0.57;;;10.10;72.50;;;;;;5042387;28;20339;-88
2021/01/02 11:59:07;;;;;;;5.43;1.70;;;10.30;72.10;;;;;;5025486;28;20060;-88
2021/01/02 12:01:47;;;;;;;2.60;1.38;;;10.40;72.00;;;;;;5061218;28;20055;-93
2021/01/02 12:04:15;;;;;;;5.60;1.00;;;10.60;71.70;;;;;;5061688;28;20033;-92
2021/01/02 12:06:41;;;;;;;2.38;1.17;;;10.70;71.50;;;;;;5042789;28;20331;-92
2021/01/02 12:09:08;;;;;;;2.05;0.73;;;10.70;71.80;;;;;;5060174;28;20024;-89
2021/01/02 12:11:37;;;;;;;1.15;0.45;;;10.80;72.00;;;;;;5033562;28;20029;-88
2021/01/02 12:14:04;;;;;;;4.30;1.15;;;10.70;73.00;;;;;;5024108;28;20036;-90
2021/01/02 12:16:34;;;;;;;1.75;0.80;;;10.50;72.60;;;;;;5008527;28;20052;-91
2021/01/02 12:19:01;;;;;;;7.28;1.23;;;10.30;73.40;;;;;;5041292;28;20029;-93
2021/01/02 12:21:27;;;;;;;3.67;0.85;;;10.00;74.30;;;;;;5023933;28;20037;-91
2021/01/02 12:23:54;;;;;;;1.98;0.70;;;10.00;74.60;;;;;;5025073;28;20033;-93
2021/01/02 12:26:21;;;;;;;1.63;1.10;;;9.90;74.70;;;;;;5025002;28;20048;-89
2021/01/02 12:28:48;;;;;;;1.60;0.75;;;9.90;74.80;;;;;;5016223;28;20420;-94
2021/01/02 12:31:18;;;;;;;3.05;1.08;;;9.90;74.80;;;;;;5040396;28;20029;-92
2021/01/02 12:33:45;;;;;;;3.42;1.27;;;10.00;75.50;;;;;;5039509;28;20041;-91
2021/01/02 12:36:12;;;;;;;1.13;0.47;;;10.20;74.30;;;;;;5040175;28;20040;-90
2021/01/02 12:38:39;;;;;;;2.65;0.88;;;10.30;74.00;;;;;;5040431;28;20049;-89
2021/01/02 12:41:11;;;;;;;2.05;0.70;;;10.30;74.10;;;;;;5015352;28;20048;-91
2021/01/02 12:43:39;;;;;;;3.42;0.68;;;10.30;74.10;;;;;;5004238;28;20037;-94
2021/01/02 12:46:09;;;;;;;0.75;0.32;;;10.30;74.10;;;;;;4987620;28;20040;-92
2021/01/02 12:48:35;;;;;;;7.80;0.90;;;10.20;74.30;;;;;;4990592;28;20037;-89
2021/01/02 12:51:03;;;;;;;1.65;0.75;;;10.10;74.50;;;;;;5007167;28;20040;-87
2021/01/02 12:53:29;;;;;;;1.25;0.52;;;9.90;74.90;;;;;;5024565;28;20041;-88
2021/01/02 12:55:55;;;;;;;4.18;0.70;;;9.80;75.40;;;;;;5037418;28;20028;-92
2021/01/02 12:58:22;;;;;;;1.17;0.52;;;9.70;75.50;;;;;;5021195;28;20037;-92
2021/01/02 13:00:51;;;;;;;3.30;1.15;;;9.70;75.60;;;;;;5020591;28;20044;-89
2021/01/02 13:03:17;;;;;;;4.75;0.88;;;9.80;75.40;;;;;;5003814;28;20052;-89
2021/01/02 13:05:44;;;;;;;1.20;0.45;;;10.10;74.90;;;;;;5019163;28;20041;-89
2021/01/02 13:08:10;;;;;;;10.07;0.47;;;10.30;74.40;;;;;;5020095;28;20021;-89